createdAt,value
2022-11-20T00:02:29.305Z,-7.60
2022-11-20T00:05:34.608Z,-6.40
2022-11-20T00:08:38.150Z,-6.60
2022-11-20T00:11:42.745Z,-7.60
2022-11-20T00:14:45.917Z,-7.30
2022-11-20T00:17:49.137Z,-7.70
2022-11-20T00:20:52.293Z,-7.70
2022-11-20T00:23:58.089Z,-7.60
2022-11-20T00:27:02.781Z,-7.70
2022-11-20T00:30:09.081Z,-7.60
2022-11-20T00:33:14.334Z,-7.90
2022-11-20T00:36:19.321Z,-6.30
2022-11-20T00:39:22.809Z,-6.70
2022-11-20T00:42:27.777Z,-6.90
2022-11-20T00:45:31.013Z,-5.80
2022-11-20T00:48:34.779Z,-6.50
2022-11-20T00:51:37.928Z,-7.30
2022-11-20T00:54:41.207Z,-6.80
2022-11-20T00:57:45.866Z,-6.40
2022-11-20T01:00:50.428Z,-6.50
2022-11-20T01:03:54.859Z,-5.80
2022-11-20T01:06:58.208Z,-7.10
2022-11-20T01:10:01.533Z,-5.70
2022-11-20T01:13:25.781Z,-5.40
2022-11-20T01:16:30.677Z,-6.30
2022-11-20T01:19:33.974Z,-6.00
2022-11-20T01:22:37.160Z,-5.20
2022-11-20T01:25:40.682Z,-5.60
2022-11-20T01:28:45.456Z,-5.00
2022-11-20T01:31:48.786Z,-5.20
2022-11-20T01:34:51.975Z,-5.10
2022-11-20T01:37:55.242Z,-5.00
2022-11-20T01:40:58.541Z,-4.90
2022-11-20T01:44:03.581Z,-3.70
2022-11-20T01:47:09.531Z,-4.40
2022-11-20T01:50:16.647Z,-4.50
2022-11-20T01:53:24.054Z,-4.40
2022-11-20T01:56:29.093Z,-4.40
2022-11-20T01:59:33.669Z,-4.40
2022-11-20T02:02:37.562Z,-4.30
2022-11-20T02:05:45.547Z,-4.30
2022-11-20T02:08:48.872Z,-4.30
2022-11-20T02:11:52.100Z,-4.40
2022-11-20T02:14:55.713Z,-4.30
2022-11-20T02:17:59.073Z,-4.20
2022-11-20T02:21:08.261Z,-4.30
2022-11-20T02:24:16.131Z,-4.30
2022-11-20T02:27:23.521Z,-4.10
2022-11-20T02:30:26.824Z,-4.00
2022-11-20T02:33:29.937Z,-3.80
2022-11-20T02:36:34.865Z,-4.00
2022-11-20T02:39:39.568Z,-3.90
2022-11-20T02:42:42.721Z,-2.90
2022-11-20T02:45:45.881Z,-3.90
2022-11-20T02:48:49.251Z,-3.80
2022-11-20T02:51:52.555Z,-3.80
2022-11-20T02:54:57.187Z,-3.80
2022-11-20T02:58:00.352Z,-3.70
2022-11-20T03:01:03.616Z,-3.70
2022-11-20T03:04:07.389Z,-2.50
2022-11-20T03:07:11.297Z,-2.50
2022-11-20T03:10:16.022Z,-3.70
2022-11-20T03:13:19.170Z,-3.60
2022-11-20T03:16:24.906Z,-3.50
2022-11-20T03:19:28.086Z,-3.50
2022-11-20T03:22:32.024Z,-3.40
2022-11-20T03:25:36.615Z,-3.30
2022-11-20T03:28:39.942Z,-3.20
2022-11-20T03:31:43.529Z,-3.20
2022-11-20T03:34:46.692Z,-3.20
2022-11-20T03:37:50.108Z,-2.30
2022-11-20T03:41:01.098Z,-3.10
2022-11-20T03:44:06.302Z,-3.10
2022-11-20T03:47:09.475Z,-3.10
2022-11-20T03:50:14.664Z,-3.10
2022-11-20T03:53:18.417Z,-3.10
2022-11-20T03:56:25.916Z,-3.10
2022-11-20T03:59:29.059Z,-2.80
2022-11-20T04:02:32.299Z,-3.10
2022-11-20T04:05:36.128Z,-3.10
2022-11-20T04:08:40.020Z,-3.10
2022-11-20T04:11:44.513Z,-3.20
2022-11-20T04:14:47.646Z,-3.30
2022-11-20T04:17:50.964Z,-3.40
2022-11-20T04:20:54.083Z,-3.40
2022-11-20T04:23:57.893Z,-2.20
2022-11-20T04:27:02.661Z,-3.60
2022-11-20T04:30:06.953Z,-3.70
2022-11-20T04:33:10.407Z,-3.70
2022-11-20T04:36:16.771Z,-3.80
2022-11-20T04:39:20.454Z,-3.80
2022-11-20T04:42:31.518Z,-3.90
2022-11-20T04:45:34.719Z,-3.90
2022-11-20T04:48:37.930Z,-2.80
2022-11-20T04:51:41.109Z,-3.90
2022-11-20T04:54:44.451Z,-3.80
2022-11-20T04:57:52.460Z,-3.80
2022-11-20T05:00:55.808Z,-3.00
2022-11-20T05:03:59.291Z,-3.90
2022-11-20T05:07:02.657Z,-3.90
2022-11-20T05:10:06.883Z,-3.90
2022-11-20T05:13:11.700Z,-4.10
2022-11-20T05:16:17.069Z,-2.90
2022-11-20T05:19:20.552Z,-4.30
2022-11-20T05:22:24.020Z,-4.10
2022-11-20T05:25:27.394Z,-4.20
2022-11-20T05:28:33.249Z,-4.40
2022-11-20T05:31:37.283Z,-4.20
2022-11-20T05:34:40.434Z,-4.40
2022-11-20T05:37:43.525Z,-4.00
2022-11-20T05:40:46.626Z,-4.10
2022-11-20T05:43:51.805Z,-4.10
2022-11-20T05:46:54.902Z,-4.70
2022-11-20T05:49:58.267Z,-4.70
2022-11-20T05:53:02.419Z,-4.90
2022-11-20T05:56:07.302Z,-5.00
2022-11-20T05:59:12.101Z,-5.10
2022-11-20T06:02:15.362Z,-5.00
2022-11-20T06:05:18.647Z,-5.20
2022-11-20T06:08:21.968Z,-5.20
2022-11-20T06:11:25.289Z,-5.20
2022-11-20T06:14:29.886Z,-5.20
2022-11-20T06:17:33.055Z,-5.20
2022-11-20T06:20:41.841Z,-5.10
2022-11-20T06:23:46.246Z,-5.30
2022-11-20T06:26:49.568Z,-3.90
2022-11-20T06:29:54.138Z,-5.20
2022-11-20T06:32:57.429Z,-5.10
2022-11-20T06:36:05.685Z,-4.80
2022-11-20T06:39:10.937Z,-5.00
2022-11-20T06:42:14.111Z,-4.90
2022-11-20T06:45:18.942Z,-4.20
2022-11-20T06:48:22.507Z,-4.90
2022-11-20T06:51:26.141Z,-4.70
2022-11-20T06:54:29.701Z,-3.30
2022-11-20T06:57:32.915Z,-3.40
2022-11-20T07:00:37.617Z,-3.90
2022-11-20T07:03:41.443Z,-4.40
2022-11-20T07:06:45.065Z,-4.40
2022-11-20T07:09:48.247Z,-3.60
2022-11-20T07:12:52.698Z,-3.90
2022-11-20T07:16:03.507Z,-4.00
2022-11-20T07:19:06.775Z,-3.90
2022-11-20T07:22:10.553Z,-3.70
2022-11-20T07:25:13.819Z,-3.50
2022-11-20T07:28:17.569Z,-2.70
2022-11-20T07:31:22.355Z,-3.30
2022-11-20T07:34:25.721Z,-3.10
2022-11-20T07:37:29.597Z,-2.00
2022-11-20T07:40:33.163Z,-3.00
2022-11-20T07:43:40.961Z,-2.60
2022-11-20T07:46:46.086Z,-2.90
2022-11-20T07:49:50.707Z,-1.60
2022-11-20T07:52:54.209Z,-1.50
2022-11-20T07:56:01.112Z,-2.70
2022-11-20T07:59:05.237Z,-2.60
2022-11-20T08:02:12.671Z,-1.90
2022-11-20T08:05:15.911Z,-1.70
2022-11-20T08:08:19.165Z,-2.40
2022-11-20T08:11:39.568Z,-2.40
2022-11-20T08:14:42.793Z,-2.30
2022-11-20T08:18:08.260Z,-2.30
2022-11-20T08:21:10.683Z,-2.20
2022-11-20T08:24:14.554Z,-2.10
2022-11-20T08:27:17.754Z,-2.10
2022-11-20T08:30:21.058Z,-2.10
2022-11-20T08:33:25.623Z,-2.10
2022-11-20T08:36:29.304Z,-0.90
2022-11-20T08:39:32.515Z,-1.50
2022-11-20T08:42:35.653Z,-1.90
2022-11-20T08:45:39.165Z,-2.00
2022-11-20T08:48:44.081Z,-1.90
2022-11-20T08:51:49.349Z,-1.20
2022-11-20T08:54:52.549Z,-1.70
2022-11-20T08:57:55.839Z,-1.20
2022-11-20T09:00:59.356Z,-1.70
2022-11-20T09:04:05.696Z,-1.70
2022-11-20T09:07:09.328Z,-1.80
2022-11-20T09:10:27.877Z,-1.80
2022-11-20T09:13:31.817Z,-0.40
2022-11-20T09:16:35.171Z,-1.60
2022-11-20T09:19:39.771Z,-0.70
2022-11-20T09:22:42.997Z,-1.40
2022-11-20T09:25:46.284Z,-0.90
2022-11-20T09:28:52.847Z,-1.40
2022-11-20T09:31:58.704Z,-1.10
2022-11-20T09:35:03.360Z,-0.60
2022-11-20T09:38:08.401Z,-1.30
2022-11-20T09:41:29.686Z,-1.10
2022-11-20T09:44:50.928Z,-1.30
2022-11-20T09:48:11.265Z,-1.40
2022-11-20T09:51:23.076Z,-1.30
2022-11-20T09:54:32.276Z,-1.30
2022-11-20T09:57:39.076Z,-1.40
2022-11-20T10:00:42.467Z,-1.30
2022-11-20T10:03:56.306Z,-1.40
2022-11-20T10:07:31.331Z,-1.20
2022-11-20T10:10:43.787Z,-1.20
2022-11-20T10:14:01.400Z,-1.20
2022-11-20T10:17:14.824Z,-1.40
2022-11-20T10:20:26.799Z,-1.40
2022-11-20T10:23:46.626Z,-1.40
2022-11-20T10:26:57.834Z,-1.30
2022-11-20T10:30:06.161Z,-1.30
2022-11-20T10:33:18.692Z,-0.40
2022-11-20T10:36:26.174Z,-1.20
2022-11-20T10:39:37.563Z,-1.20
2022-11-20T10:42:47.094Z,-1.10
2022-11-20T10:45:57.871Z,-1.10
2022-11-20T10:49:01.860Z,-1.20
2022-11-20T10:52:15.009Z,-1.20
2022-11-20T10:55:30.870Z,-1.20
2022-11-20T10:58:42.597Z,-1.00
2022-11-20T11:01:45.960Z,-1.10
2022-11-20T11:04:51.131Z,-0.30
2022-11-20T11:07:57.561Z,-1.00
2022-11-20T11:11:13.915Z,-0.90
2022-11-20T11:14:18.270Z,-0.90
2022-11-20T11:17:38.126Z,-1.00
2022-11-20T11:20:51.688Z,-0.90
2022-11-20T11:24:26.953Z,-0.90
2022-11-20T11:27:28.692Z,-1.00
2022-11-20T11:30:43.246Z,-0.90
2022-11-20T11:33:46.486Z,-1.00
2022-11-20T11:36:57.504Z,-0.80
2022-11-20T11:40:23.502Z,-1.10
2022-11-20T11:43:48.523Z,-1.10
2022-11-20T11:46:56.808Z,-1.00
2022-11-20T11:50:05.158Z,-1.00
2022-11-20T11:53:14.416Z,-1.10
2022-11-20T11:56:17.947Z,-0.40
2022-11-20T11:59:29.179Z,-0.40
2022-11-20T12:02:38.868Z,-0.40
2022-11-20T12:05:46.759Z,-1.00
2022-11-20T12:08:55.351Z,-0.90
2022-11-20T12:12:07.125Z,-0.90
2022-11-20T12:15:15.409Z,-0.70
2022-11-20T12:18:21.847Z,-0.80
2022-11-20T12:21:36.163Z,-0.30
2022-11-20T12:24:54.242Z,-0.80
2022-11-20T12:28:19.848Z,-0.80
2022-11-20T12:31:45.409Z,-0.90
2022-11-20T12:35:07.254Z,-0.80
2022-11-20T12:38:47.311Z,-0.70
2022-11-20T12:42:22.206Z,-0.70
2022-11-20T12:45:50.699Z,-0.90
2022-11-20T12:49:14.044Z,-0.90
2022-11-20T12:52:32.114Z,-1.10
2022-11-20T12:55:44.204Z,-1.10
2022-11-20T12:59:02.512Z,-1.10
2022-11-20T13:02:20.951Z,-1.10
2022-11-20T13:05:34.230Z,-1.10
2022-11-20T13:08:40.456Z,-1.10
2022-11-20T13:11:50.737Z,-1.10
2022-11-20T13:15:01.431Z,-1.10
2022-11-20T13:18:10.772Z,-1.10
2022-11-20T13:21:22.876Z,-1.10
2022-11-20T13:24:31.004Z,-1.00
2022-11-20T13:27:34.936Z,-1.10
2022-11-20T13:30:51.592Z,-1.30
2022-11-20T13:33:57.273Z,-1.30
2022-11-20T13:37:04.734Z,-1.40
2022-11-20T13:40:15.234Z,-1.40
2022-11-20T13:43:24.947Z,-1.40
2022-11-20T13:46:39.289Z,-1.40
2022-11-20T13:49:45.403Z,-1.40
2022-11-20T13:53:04.045Z,-1.30
2022-11-20T13:56:16.331Z,-1.30
2022-11-20T13:59:39.398Z,-1.30
2022-11-20T14:02:43.561Z,-1.30
2022-11-20T14:05:56.905Z,-1.40
2022-11-20T14:09:03.028Z,-1.40
2022-11-20T14:12:16.525Z,-0.80
2022-11-20T14:15:28.162Z,-0.70
2022-11-20T14:18:31.498Z,-0.80
2022-11-20T14:21:35.854Z,-1.40
2022-11-20T14:24:40.689Z,-1.20
2022-11-20T14:27:46.787Z,-1.40
2022-11-20T14:30:51.283Z,-1.50
2022-11-20T14:33:55.901Z,-1.50
2022-11-20T14:37:02.640Z,-1.60
2022-11-20T14:40:25.931Z,-1.70
2022-11-20T14:43:30.859Z,-1.80
2022-11-20T14:46:35.497Z,-1.80
2022-11-20T14:49:40.012Z,-1.80
2022-11-20T14:52:53.029Z,-2.10
2022-11-20T14:56:03.186Z,-2.30
2022-11-20T14:59:06.737Z,-2.30
2022-11-20T15:02:13.175Z,-2.40
2022-11-20T15:05:17.487Z,-2.40
2022-11-20T15:08:21.071Z,-2.50
2022-11-20T15:11:31.497Z,-2.50
2022-11-20T15:14:35.791Z,-2.60
2022-11-20T15:17:41.106Z,-2.60
2022-11-20T15:20:45.349Z,-2.60
2022-11-20T15:23:48.860Z,-1.60
2022-11-20T15:26:53.918Z,-2.80
2022-11-20T15:29:57.239Z,-1.60
2022-11-20T15:33:00.565Z,-2.60
2022-11-20T15:36:04.054Z,-2.70
2022-11-20T15:39:08.073Z,-2.60
2022-11-20T15:42:12.713Z,-2.60
2022-11-20T15:45:16.978Z,-2.50
2022-11-20T15:48:22.482Z,-2.40
2022-11-20T15:51:29.067Z,-2.30
2022-11-20T15:54:35.951Z,-2.20
2022-11-20T15:57:40.513Z,-2.30
2022-11-20T16:00:43.705Z,-1.40
2022-11-20T16:03:47.238Z,-2.40
2022-11-20T16:06:50.369Z,-2.40
2022-11-20T16:09:53.656Z,-1.80
2022-11-20T16:13:15.491Z,-2.40
2022-11-20T16:16:23.571Z,-2.30
2022-11-20T16:19:27.023Z,-2.50
2022-11-20T16:22:30.401Z,-1.80
2022-11-20T16:25:33.937Z,-2.50
2022-11-20T16:28:38.557Z,-1.80
2022-11-20T16:31:42.019Z,-2.00
2022-11-20T16:34:45.296Z,-2.60
2022-11-20T16:37:48.503Z,-2.80
2022-11-20T16:40:52.197Z,-2.90
2022-11-20T16:43:59.109Z,-2.90
2022-11-20T16:47:02.710Z,-3.10
2022-11-20T16:50:07.424Z,-3.30
2022-11-20T16:53:10.862Z,-3.40
2022-11-20T16:56:16.080Z,-2.40
2022-11-20T16:59:20.988Z,-3.50
2022-11-20T17:02:24.528Z,-3.70
2022-11-20T17:05:30.581Z,-2.60
2022-11-20T17:08:33.895Z,-3.40
2022-11-20T17:11:38.487Z,-3.50
2022-11-20T17:14:43.168Z,-4.10
2022-11-20T17:17:46.505Z,-2.80
2022-11-20T17:20:53.800Z,-3.60
2022-11-20T17:23:57.245Z,-4.00
2022-11-20T17:27:00.580Z,-2.90
2022-11-20T17:30:05.783Z,-3.40
2022-11-20T17:33:09.012Z,-4.00
2022-11-20T17:36:14.807Z,-4.00
2022-11-20T17:39:19.491Z,-3.20
2022-11-20T17:42:29.707Z,-3.80
2022-11-20T17:45:37.464Z,-3.90
2022-11-20T17:48:44.084Z,-3.90
2022-11-20T17:52:02.361Z,-4.10
2022-11-20T17:55:06.195Z,-4.10
2022-11-20T17:58:08.493Z,-4.10
2022-11-20T18:01:13.220Z,-3.70
2022-11-20T18:04:16.656Z,-4.10
2022-11-20T18:07:20.030Z,-4.00
2022-11-20T18:10:23.376Z,-4.00
2022-11-20T18:13:47.965Z,-3.10
2022-11-20T18:16:55.807Z,-3.00
2022-11-20T18:20:31.081Z,-3.30
2022-11-20T18:23:23.096Z,-3.90
2022-11-20T18:26:27.556Z,-3.90
2022-11-20T18:29:31.728Z,-3.80
2022-11-20T18:32:37.644Z,-3.70
2022-11-20T18:35:43.129Z,-3.50
2022-11-20T18:38:48.498Z,-3.60
2022-11-20T18:42:09.426Z,-3.60
2022-11-20T18:45:12.821Z,-3.40
2022-11-20T18:48:18.156Z,-3.30
2022-11-20T18:51:21.599Z,-3.10
2022-11-20T18:54:28.133Z,-3.10
2022-11-20T18:57:32.532Z,-3.00
2022-11-20T19:00:36.877Z,-2.70
2022-11-20T19:03:42.892Z,-2.80
2022-11-20T19:06:49.283Z,-2.70
2022-11-20T19:09:53.958Z,-2.70
2022-11-20T19:12:58.640Z,-2.70
2022-11-20T19:16:04.060Z,-2.70
2022-11-20T19:19:08.925Z,-2.80
2022-11-20T19:22:14.104Z,-2.50
2022-11-20T19:25:17.785Z,-2.70
2022-11-20T19:28:21.152Z,-2.50
2022-11-20T19:31:26.905Z,-2.30
2022-11-20T19:34:34.516Z,-2.20
2022-11-20T19:37:37.889Z,-2.10
2022-11-20T19:40:41.525Z,-1.50
2022-11-20T19:43:49.714Z,-0.80
2022-11-20T19:46:53.304Z,-1.80
2022-11-20T19:49:58.079Z,-2.00
2022-11-20T19:53:02.431Z,-2.00
2022-11-20T19:56:06.934Z,-2.00
2022-11-20T19:59:10.707Z,-1.90
2022-11-20T20:02:14.411Z,-1.90
2022-11-20T20:05:19.175Z,-1.90
2022-11-20T20:08:22.517Z,-1.50
2022-11-20T20:11:27.700Z,-1.60
2022-11-20T20:14:32.068Z,-1.80
2022-11-20T20:17:35.455Z,-1.30
2022-11-20T20:20:40.310Z,-1.70
2022-11-20T20:23:44.137Z,-1.80
2022-11-20T20:26:47.469Z,-1.70
2022-11-20T20:29:50.752Z,-1.50
2022-11-20T20:32:56.417Z,-1.40
2022-11-20T20:36:01.739Z,-1.50
2022-11-20T20:39:05.242Z,-1.60
2022-11-20T20:42:08.513Z,-1.40
2022-11-20T20:45:12.680Z,-1.60
2022-11-20T20:48:16.600Z,-1.60
2022-11-20T20:51:21.655Z,-1.70
2022-11-20T20:54:24.970Z,-1.40
2022-11-20T20:57:28.951Z,-1.70
2022-11-20T21:00:32.689Z,-1.60
2022-11-20T21:03:37.501Z,-1.60
2022-11-20T21:06:42.684Z,-1.50
2022-11-20T21:09:48.837Z,-1.50
2022-11-20T21:12:52.398Z,-1.40
2022-11-20T21:15:55.919Z,-1.40
2022-11-20T21:18:59.464Z,-1.40
2022-11-20T21:22:04.975Z,-1.40
2022-11-20T21:25:09.236Z,-1.40
2022-11-20T21:28:17.843Z,-1.40
2022-11-20T21:31:27.655Z,-1.40
2022-11-20T21:34:32.729Z,-1.40
2022-11-20T21:37:40.892Z,-1.50
2022-11-20T21:40:44.676Z,-1.40
2022-11-20T21:44:03.809Z,-1.40
2022-11-20T21:47:13.886Z,-1.40
2022-11-20T21:50:17.658Z,-1.40
2022-11-20T21:53:22.788Z,-1.40
2022-11-20T21:56:27.358Z,-1.40
2022-11-20T21:59:30.952Z,-1.40
2022-11-20T22:02:35.665Z,-1.40
2022-11-20T22:05:39.230Z,-1.40
2022-11-20T22:08:44.635Z,-1.30
2022-11-20T22:11:48.158Z,-1.30
2022-11-20T22:14:52.075Z,-1.30
2022-11-20T22:18:12.944Z,-1.40
2022-11-20T22:21:18.545Z,-1.40
2022-11-20T22:24:24.648Z,-1.30
2022-11-20T22:27:28.411Z,-1.40
2022-11-20T22:30:32.927Z,-1.40
2022-11-20T22:33:37.663Z,-1.30
2022-11-20T22:36:42.373Z,-1.30
2022-11-20T22:39:47.314Z,-1.30
2022-11-20T22:42:51.288Z,-1.30
2022-11-20T22:45:55.608Z,-1.30
2022-11-20T22:49:02.180Z,-1.30
2022-11-20T22:52:06.029Z,-1.20
2022-11-20T22:55:16.239Z,-1.20
2022-11-20T22:58:19.957Z,-1.20
2022-11-20T23:01:24.961Z,-1.20
2022-11-20T23:04:28.346Z,-0.90
2022-11-20T23:07:34.931Z,-1.20
2022-11-20T23:10:43.096Z,-1.20
2022-11-20T23:13:47.456Z,-1.20
2022-11-20T23:16:51.190Z,-1.10
2022-11-20T23:19:54.735Z,-1.10
2022-11-20T23:22:58.027Z,-1.10
2022-11-20T23:26:07.729Z,-1.10
2022-11-20T23:29:11.120Z,-1.10
2022-11-20T23:32:14.624Z,-1.10
2022-11-20T23:35:18.005Z,-1.10
2022-11-20T23:38:21.984Z,-1.10
2022-11-20T23:41:26.682Z,-1.10
2022-11-20T23:44:30.134Z,-1.10
2022-11-20T23:47:33.802Z,-1.00
2022-11-20T23:50:37.308Z,-1.00
2022-11-20T23:53:40.631Z,-1.10
2022-11-20T23:56:45.481Z,-1.00
2022-11-20T23:59:48.886Z,-1.00
